sensor_id;sensor_type;location;lat;lon;timestamp;temperature;humidity
3942;DHT22;1985;48.592;8.850;2022-12-07T00:01:09;5.30;99.90
3942;DHT22;1985;48.592;8.850;2022-12-07T00:03:36;5.40;99.90
3942;DHT22;1985;48.592;8.850;2022-12-07T00:06:03;5.50;99.90
3942;DHT22;1985;48.592;8.850;2022-12-07T00:08:29;5.30;99.90
3942;DHT22;1985;48.592;8.850;2022-12-07T00:10:55;5.20;99.90
3942;DHT22;1985;48.592;8.850;2022-12-07T00:13:25;5.30;99.90
3942;DHT22;1985;48.592;8.850;2022-12-07T00:15:51;5.40;99.90
3942;DHT22;1985;48.592;8.850;2022-12-07T00:18:16;5.20;99.90
3942;DHT22;1985;48.592;8.850;2022-12-07T00:20:42;5.10;99.90
3942;DHT22;1985;48.592;8.850;2022-12-07T00:23:07;5.10;99.90
3942;DHT22;1985;48.592;8.850;2022-12-07T00:25:33;5.30;99.90
3942;DHT22;1985;48.592;8.850;2022-12-07T00:27:58;5.30;99.90
3942;DHT22;1985;48.592;8.850;2022-12-07T00:30:24;5.40;99.90
3942;DHT22;1985;48.592;8.850;2022-12-07T00:32:50;5.50;99.90
3942;DHT22;1985;48.592;8.850;2022-12-07T00:35:16;5.50;99.90
3942;DHT22;1985;48.592;8.850;2022-12-07T00:37:41;5.60;99.90
3942;DHT22;1985;48.592;8.850;2022-12-07T00:40:07;5.60;99.90
3942;DHT22;1985;48.592;8.850;2022-12-07T00:42:33;5.70;99.90
3942;DHT22;1985;48.592;8.850;2022-12-07T00:44:58;5.60;99.90
3942;DHT22;1985;48.592;8.850;2022-12-07T00:47:24;5.60;99.90
3942;DHT22;1985;48.592;8.850;2022-12-07T00:49:50;5.70;99.90
3942;DHT22;1985;48.592;8.850;2022-12-07T00:52:15;5.80;99.90
3942;DHT22;1985;48.592;8.850;2022-12-07T00:54:41;5.80;99.90
3942;DHT22;1985;48.592;8.850;2022-12-07T00:57:06;5.80;99.90
3942;DHT22;1985;48.592;8.850;2022-12-07T00:59:32;5.80;99.90
3942;DHT22;1985;48.592;8.850;2022-12-07T01:01:58;5.80;99.90
3942;DHT22;1985;48.592;8.850;2022-12-07T01:04:23;5.90;99.90
3942;DHT22;1985;48.592;8.850;2022-12-07T01:06:49;5.90;99.90
3942;DHT22;1985;48.592;8.850;2022-12-07T01:09:14;5.90;99.90
3942;DHT22;1985;48.592;8.850;2022-12-07T01:11:40;5.90;99.90
3942;DHT22;1985;48.592;8.850;2022-12-07T01:14:06;5.90;99.90
3942;DHT22;1985;48.592;8.850;2022-12-07T01:16:32;5.90;99.90
3942;DHT22;1985;48.592;8.850;2022-12-07T01:18:59;5.90;99.90
3942;DHT22;1985;48.592;8.850;2022-12-07T01:21:30;5.90;99.90
3942;DHT22;1985;48.592;8.850;2022-12-07T01:24:00;6.00;99.90
3942;DHT22;1985;48.592;8.850;2022-12-07T01:26:27;6.00;99.90
3942;DHT22;1985;48.592;8.850;2022-12-07T01:28:53;6.00;99.90
3942;DHT22;1985;48.592;8.850;2022-12-07T01:31:22;5.90;99.90
3942;DHT22;1985;48.592;8.850;2022-12-07T01:33:53;5.80;99.90
3942;DHT22;1985;48.592;8.850;2022-12-07T01:38:47;5.70;99.90
3942;DHT22;1985;48.592;8.850;2022-12-07T01:41:15;5.70;99.90
3942;DHT22;1985;48.592;8.850;2022-12-07T01:44:13;5.70;99.90
3942;DHT22;1985;48.592;8.850;2022-12-07T01:46:40;5.70;99.90
3942;DHT22;1985;48.592;8.850;2022-12-07T01:49:10;5.80;99.90
3942;DHT22;1985;48.592;8.850;2022-12-07T01:51:38;5.80;99.90
3942;DHT22;1985;48.592;8.850;2022-12-07T01:54:06;5.80;99.90
3942;DHT22;1985;48.592;8.850;2022-12-07T01:56:32;5.90;99.90
3942;DHT22;1985;48.592;8.850;2022-12-07T01:59:00;5.90;99.90
3942;DHT22;1985;48.592;8.850;2022-12-07T02:01:25;5.80;99.90
3942;DHT22;1985;48.592;8.850;2022-12-07T02:03:52;5.80;99.90
3942;DHT22;1985;48.592;8.850;2022-12-07T02:06:21;5.60;99.90
3942;DHT22;1985;48.592;8.850;2022-12-07T02:08:47;5.40;99.90
3942;DHT22;1985;48.592;8.850;2022-12-07T02:11:14;5.20;99.90
3942;DHT22;1985;48.592;8.850;2022-12-07T02:13:42;5.20;99.90
3942;DHT22;1985;48.592;8.850;2022-12-07T02:24:29;5.00;99.90
3942;DHT22;1985;48.592;8.850;2022-12-07T02:34:44;5.10;99.90
3942;DHT22;1985;48.592;8.850;2022-12-07T02:40:08;4.90;99.90
3942;DHT22;1985;48.592;8.850;2022-12-07T02:42:41;4.90;99.90
3942;DHT22;1985;48.592;8.850;2022-12-07T02:45:08;4.90;99.90
3942;DHT22;1985;48.592;8.850;2022-12-07T02:47:36;4.90;99.90
3942;DHT22;1985;48.592;8.850;2022-12-07T02:50:05;4.80;99.90
3942;DHT22;1985;48.592;8.850;2022-12-07T02:52:31;4.90;99.90
3942;DHT22;1985;48.592;8.850;2022-12-07T02:54:56;5.00;99.90
3942;DHT22;1985;48.592;8.850;2022-12-07T03:10:40;5.10;99.90
3942;DHT22;1985;48.592;8.850;2022-12-07T03:18:19;5.00;99.90
3942;DHT22;1985;48.592;8.850;2022-12-07T03:20:48;4.90;99.90
3942;DHT22;1985;48.592;8.850;2022-12-07T03:23:16;4.90;99.90
3942;DHT22;1985;48.592;8.850;2022-12-07T03:25:47;4.90;99.90
3942;DHT22;1985;48.592;8.850;2022-12-07T03:28:17;4.90;99.90
3942;DHT22;1985;48.592;8.850;2022-12-07T03:31:11;5.00;99.90
3942;DHT22;1985;48.592;8.850;2022-12-07T03:37:03;4.90;99.90
3942;DHT22;1985;48.592;8.850;2022-12-07T03:39:48;4.90;99.90
3942;DHT22;1985;48.592;8.850;2022-12-07T03:42:15;4.90;99.90
3942;DHT22;1985;48.592;8.850;2022-12-07T03:44:42;4.90;99.90
3942;DHT22;1985;48.592;8.850;2022-12-07T03:47:29;4.90;99.90
3942;DHT22;1985;48.592;8.850;2022-12-07T03:50:08;4.70;99.90
3942;DHT22;1985;48.592;8.850;2022-12-07T03:52:40;4.60;99.90
3942;DHT22;1985;48.592;8.850;2022-12-07T03:55:19;4.50;99.90
3942;DHT22;1985;48.592;8.850;2022-12-07T03:57:48;4.50;99.90
3942;DHT22;1985;48.592;8.850;2022-12-07T04:00:15;4.50;99.90
3942;DHT22;1985;48.592;8.850;2022-12-07T04:02:41;4.50;99.90
3942;DHT22;1985;48.592;8.850;2022-12-07T04:05:08;4.50;99.90
3942;DHT22;1985;48.592;8.850;2022-12-07T04:07:34;4.50;99.90
3942;DHT22;1985;48.592;8.850;2022-12-07T04:09:59;4.60;99.90
3942;DHT22;1985;48.592;8.850;2022-12-07T04:12:25;4.70;99.90
3942;DHT22;1985;48.592;8.850;2022-12-07T04:14:50;4.70;99.90
3942;DHT22;1985;48.592;8.850;2022-12-07T04:17:16;4.60;99.90
3942;DHT22;1985;48.592;8.850;2022-12-07T04:19:42;4.60;99.90
3942;DHT22;1985;48.592;8.850;2022-12-07T04:22:08;4.60;99.90
3942;DHT22;1985;48.592;8.850;2022-12-07T04:24:33;4.60;99.90
3942;DHT22;1985;48.592;8.850;2022-12-07T04:26:59;4.60;99.90
3942;DHT22;1985;48.592;8.850;2022-12-07T04:29:25;4.70;99.90
3942;DHT22;1985;48.592;8.850;2022-12-07T04:31:51;4.80;99.90
3942;DHT22;1985;48.592;8.850;2022-12-07T04:34:18;4.80;99.90
3942;DHT22;1985;48.592;8.850;2022-12-07T04:36:45;4.80;99.90
3942;DHT22;1985;48.592;8.850;2022-12-07T04:39:37;4.70;99.90
3942;DHT22;1985;48.592;8.850;2022-12-07T04:42:03;4.70;99.90
3942;DHT22;1985;48.592;8.850;2022-12-07T04:44:29;4.70;99.90
3942;DHT22;1985;48.592;8.850;2022-12-07T04:46:56;4.60;99.90
3942;DHT22;1985;48.592;8.850;2022-12-07T04:49:23;4.60;99.90
3942;DHT22;1985;48.592;8.850;2022-12-07T04:51:49;4.60;99.90
3942;DHT22;1985;48.592;8.850;2022-12-07T04:54:16;4.60;99.90
3942;DHT22;1985;48.592;8.850;2022-12-07T04:56:42;4.60;99.90
3942;DHT22;1985;48.592;8.850;2022-12-07T04:59:10;4.60;99.90
3942;DHT22;1985;48.592;8.850;2022-12-07T05:01:36;4.40;99.90
3942;DHT22;1985;48.592;8.850;2022-12-07T05:04:01;4.30;99.90
3942;DHT22;1985;48.592;8.850;2022-12-07T05:06:27;4.20;99.90
3942;DHT22;1985;48.592;8.850;2022-12-07T05:08:53;4.10;99.90
3942;DHT22;1985;48.592;8.850;2022-12-07T05:11:18;4.00;99.90
3942;DHT22;1985;48.592;8.850;2022-12-07T05:14:13;4.00;99.90
3942;DHT22;1985;48.592;8.850;2022-12-07T05:16:40;3.90;99.90
3942;DHT22;1985;48.592;8.850;2022-12-07T05:19:07;3.60;99.90
3942;DHT22;1985;48.592;8.850;2022-12-07T05:21:33;3.30;99.90
3942;DHT22;1985;48.592;8.850;2022-12-07T05:23:58;3.20;99.90
3942;DHT22;1985;48.592;8.850;2022-12-07T05:26:24;2.90;99.90
3942;DHT22;1985;48.592;8.850;2022-12-07T05:28:54;2.60;99.90
3942;DHT22;1985;48.592;8.850;2022-12-07T05:31:21;2.50;99.90
3942;DHT22;1985;48.592;8.850;2022-12-07T05:33:47;2.50;99.90
3942;DHT22;1985;48.592;8.850;2022-12-07T05:36:13;2.50;99.90
3942;DHT22;1985;48.592;8.850;2022-12-07T05:38:39;2.60;99.90
3942;DHT22;1985;48.592;8.850;2022-12-07T05:41:06;2.60;99.90
3942;DHT22;1985;48.592;8.850;2022-12-07T05:43:32;2.50;99.90
3942;DHT22;1985;48.592;8.850;2022-12-07T05:45:58;2.40;99.90
3942;DHT22;1985;48.592;8.850;2022-12-07T05:48:24;2.40;99.90
3942;DHT22;1985;48.592;8.850;2022-12-07T05:50:51;2.40;99.90
3942;DHT22;1985;48.592;8.850;2022-12-07T05:53:17;2.40;99.90
3942;DHT22;1985;48.592;8.850;2022-12-07T05:55:43;2.40;99.90
3942;DHT22;1985;48.592;8.850;2022-12-07T05:58:09;2.40;99.90
3942;DHT22;1985;48.592;8.850;2022-12-07T06:00:55;2.60;99.90
3942;DHT22;1985;48.592;8.850;2022-12-07T06:03:21;2.80;99.90
3942;DHT22;1985;48.592;8.850;2022-12-07T06:05:47;3.00;99.90
3942;DHT22;1985;48.592;8.850;2022-12-07T06:08:12;3.10;99.90
3942;DHT22;1985;48.592;8.850;2022-12-07T06:10:40;3.20;99.90
3942;DHT22;1985;48.592;8.850;2022-12-07T06:13:07;3.20;99.90
3942;DHT22;1985;48.592;8.850;2022-12-07T06:15:35;3.20;99.90
3942;DHT22;1985;48.592;8.850;2022-12-07T06:18:00;3.20;99.90
3942;DHT22;1985;48.592;8.850;2022-12-07T06:20:26;3.10;99.90
3942;DHT22;1985;48.592;8.850;2022-12-07T06:22:52;3.10;99.90
3942;DHT22;1985;48.592;8.850;2022-12-07T06:25:17;3.20;99.90
3942;DHT22;1985;48.592;8.850;2022-12-07T06:27:43;3.10;99.90
3942;DHT22;1985;48.592;8.850;2022-12-07T06:30:09;3.20;99.90
3942;DHT22;1985;48.592;8.850;2022-12-07T06:32:36;3.30;99.90
3942;DHT22;1985;48.592;8.850;2022-12-07T06:35:03;3.20;99.90
3942;DHT22;1985;48.592;8.850;2022-12-07T06:37:28;3.30;99.90
3942;DHT22;1985;48.592;8.850;2022-12-07T06:39:54;3.40;99.90
3942;DHT22;1985;48.592;8.850;2022-12-07T06:42:20;3.40;99.90
3942;DHT22;1985;48.592;8.850;2022-12-07T06:44:45;3.50;99.90
3942;DHT22;1985;48.592;8.850;2022-12-07T06:47:11;3.50;99.90
3942;DHT22;1985;48.592;8.850;2022-12-07T06:49:37;3.60;99.90
3942;DHT22;1985;48.592;8.850;2022-12-07T06:52:03;3.60;99.90
3942;DHT22;1985;48.592;8.850;2022-12-07T06:54:30;3.70;99.90
3942;DHT22;1985;48.592;8.850;2022-12-07T06:56:55;3.70;99.90
3942;DHT22;1985;48.592;8.850;2022-12-07T06:59:21;3.80;99.90
3942;DHT22;1985;48.592;8.850;2022-12-07T07:01:47;3.80;99.90
3942;DHT22;1985;48.592;8.850;2022-12-07T07:04:12;3.80;99.90
3942;DHT22;1985;48.592;8.850;2022-12-07T07:06:38;3.80;99.90
3942;DHT22;1985;48.592;8.850;2022-12-07T07:09:04;3.80;99.90
3942;DHT22;1985;48.592;8.850;2022-12-07T07:11:29;3.80;99.90
3942;DHT22;1985;48.592;8.850;2022-12-07T07:13:55;3.80;99.90
3942;DHT22;1985;48.592;8.850;2022-12-07T07:16:23;3.70;99.90
3942;DHT22;1985;48.592;8.850;2022-12-07T07:18:49;3.70;99.90
3942;DHT22;1985;48.592;8.850;2022-12-07T07:21:14;3.60;99.90
3942;DHT22;1985;48.592;8.850;2022-12-07T07:23:40;3.40;99.90
3942;DHT22;1985;48.592;8.850;2022-12-07T07:26:05;3.40;99.90
3942;DHT22;1985;48.592;8.850;2022-12-07T07:28:31;3.40;99.90
3942;DHT22;1985;48.592;8.850;2022-12-07T07:30:57;3.40;99.90
3942;DHT22;1985;48.592;8.850;2022-12-07T07:33:22;3.60;99.90
3942;DHT22;1985;48.592;8.850;2022-12-07T07:35:48;3.50;99.90
3942;DHT22;1985;48.592;8.850;2022-12-07T07:38:13;3.40;99.90
3942;DHT22;1985;48.592;8.850;2022-12-07T07:40:39;3.40;99.90
3942;DHT22;1985;48.592;8.850;2022-12-07T07:43:05;3.50;99.90
3942;DHT22;1985;48.592;8.850;2022-12-07T07:45:30;3.50;99.90
3942;DHT22;1985;48.592;8.850;2022-12-07T07:47:56;3.40;99.90
3942;DHT22;1985;48.592;8.850;2022-12-07T07:50:22;3.30;99.90
3942;DHT22;1985;48.592;8.850;2022-12-07T07:52:47;3.40;99.90
3942;DHT22;1985;48.592;8.850;2022-12-07T07:55:13;3.50;99.90
3942;DHT22;1985;48.592;8.850;2022-12-07T07:57:39;3.70;99.90
3942;DHT22;1985;48.592;8.850;2022-12-07T08:00:08;3.70;99.90
3942;DHT22;1985;48.592;8.850;2022-12-07T08:02:34;3.70;99.90
3942;DHT22;1985;48.592;8.850;2022-12-07T08:04:59;3.80;99.90
3942;DHT22;1985;48.592;8.850;2022-12-07T08:07:27;4.00;99.90
3942;DHT22;1985;48.592;8.850;2022-12-07T08:09:53;4.10;99.90
3942;DHT22;1985;48.592;8.850;2022-12-07T08:12:18;4.20;99.90
3942;DHT22;1985;48.592;8.850;2022-12-07T08:14:44;4.30;99.90
3942;DHT22;1985;48.592;8.850;2022-12-07T08:17:09;4.30;99.90
3942;DHT22;1985;48.592;8.850;2022-12-07T08:19:35;4.10;99.90
3942;DHT22;1985;48.592;8.850;2022-12-07T08:22:01;4.00;99.90
3942;DHT22;1985;48.592;8.850;2022-12-07T08:24:27;3.80;99.90
3942;DHT22;1985;48.592;8.850;2022-12-07T08:26:52;3.60;99.90
3942;DHT22;1985;48.592;8.850;2022-12-07T08:29:18;3.70;99.90
3942;DHT22;1985;48.592;8.850;2022-12-07T08:31:44;3.90;99.90
3942;DHT22;1985;48.592;8.850;2022-12-07T08:34:11;3.90;99.90
3942;DHT22;1985;48.592;8.850;2022-12-07T08:36:37;4.10;99.90
3942;DHT22;1985;48.592;8.850;2022-12-07T08:39:03;3.90;99.90
3942;DHT22;1985;48.592;8.850;2022-12-07T08:41:29;3.90;99.90
3942;DHT22;1985;48.592;8.850;2022-12-07T08:43:54;4.00;99.90
3942;DHT22;1985;48.592;8.850;2022-12-07T08:48:57;3.70;99.90
3942;DHT22;1985;48.592;8.850;2022-12-07T08:51:23;3.90;99.90
3942;DHT22;1985;48.592;8.850;2022-12-07T08:53:50;4.20;99.90
3942;DHT22;1985;48.592;8.850;2022-12-07T08:56:17;4.20;99.90
3942;DHT22;1985;48.592;8.850;2022-12-07T08:58:43;4.20;99.90
3942;DHT22;1985;48.592;8.850;2022-12-07T09:01:09;4.30;99.90
3942;DHT22;1985;48.592;8.850;2022-12-07T09:03:35;4.50;99.90
3942;DHT22;1985;48.592;8.850;2022-12-07T09:06:01;4.70;99.90
3942;DHT22;1985;48.592;8.850;2022-12-07T09:08:39;4.80;99.90
3942;DHT22;1985;48.592;8.850;2022-12-07T09:11:06;4.90;99.90
3942;DHT22;1985;48.592;8.850;2022-12-07T09:13:31;5.00;99.90
3942;DHT22;1985;48.592;8.850;2022-12-07T09:15:57;4.80;99.90
3942;DHT22;1985;48.592;8.850;2022-12-07T09:18:22;4.90;99.90
3942;DHT22;1985;48.592;8.850;2022-12-07T09:20:49;5.00;99.90
3942;DHT22;1985;48.592;8.850;2022-12-07T09:23:15;5.10;99.90
3942;DHT22;1985;48.592;8.850;2022-12-07T09:25:40;5.20;99.90
3942;DHT22;1985;48.592;8.850;2022-12-07T09:28:06;5.30;99.90
3942;DHT22;1985;48.592;8.850;2022-12-07T09:30:32;5.30;99.90
3942;DHT22;1985;48.592;8.850;2022-12-07T09:32:57;5.30;99.90
3942;DHT22;1985;48.592;8.850;2022-12-07T09:35:25;5.40;99.90
3942;DHT22;1985;48.592;8.850;2022-12-07T09:37:51;5.60;99.90
3942;DHT22;1985;48.592;8.850;2022-12-07T09:40:18;5.70;99.90
3942;DHT22;1985;48.592;8.850;2022-12-07T09:42:48;5.80;99.90
3942;DHT22;1985;48.592;8.850;2022-12-07T09:47:52;6.20;99.90
3942;DHT22;1985;48.592;8.850;2022-12-07T09:50:21;6.30;99.90
3942;DHT22;1985;48.592;8.850;2022-12-07T09:52:48;6.40;99.90
3942;DHT22;1985;48.592;8.850;2022-12-07T09:55:19;6.50;99.90
3942;DHT22;1985;48.592;8.850;2022-12-07T09:57:46;6.70;99.90
3942;DHT22;1985;48.592;8.850;2022-12-07T10:00:18;6.70;99.90
3942;DHT22;1985;48.592;8.850;2022-12-07T10:02:52;6.80;99.90
3942;DHT22;1985;48.592;8.850;2022-12-07T10:08:12;6.70;99.90
3942;DHT22;1985;48.592;8.850;2022-12-07T10:10:38;6.70;99.90
3942;DHT22;1985;48.592;8.850;2022-12-07T10:13:17;6.50;99.90
3942;DHT22;1985;48.592;8.850;2022-12-07T10:20:47;6.10;99.90
3942;DHT22;1985;48.592;8.850;2022-12-07T10:23:15;6.10;99.90
3942;DHT22;1985;48.592;8.850;2022-12-07T10:25:41;5.70;99.90
3942;DHT22;1985;48.592;8.850;2022-12-07T10:30:58;5.20;99.90
3942;DHT22;1985;48.592;8.850;2022-12-07T10:33:47;5.10;99.90
3942;DHT22;1985;48.592;8.850;2022-12-07T10:36:18;5.30;99.90
3942;DHT22;1985;48.592;8.850;2022-12-07T10:38:50;5.20;99.90
3942;DHT22;1985;48.592;8.850;2022-12-07T10:41:16;5.30;99.90
3942;DHT22;1985;48.592;8.850;2022-12-07T10:43:59;5.30;99.90
3942;DHT22;1985;48.592;8.850;2022-12-07T10:46:44;5.00;99.90
3942;DHT22;1985;48.592;8.850;2022-12-07T10:55:01;5.80;99.90
3942;DHT22;1985;48.592;8.850;2022-12-07T10:57:43;6.10;99.90
3942;DHT22;1985;48.592;8.850;2022-12-07T11:00:23;6.40;99.90
3942;DHT22;1985;48.592;8.850;2022-12-07T11:05:43;6.30;99.90
3942;DHT22;1985;48.592;8.850;2022-12-07T11:13:31;6.30;99.90
3942;DHT22;1985;48.592;8.850;2022-12-07T11:16:04;6.40;99.90
3942;DHT22;1985;48.592;8.850;2022-12-07T11:18:45;6.60;99.90
3942;DHT22;1985;48.592;8.850;2022-12-07T11:24:46;6.80;99.90
3942;DHT22;1985;48.592;8.850;2022-12-07T11:27:40;7.00;99.90
3942;DHT22;1985;48.592;8.850;2022-12-07T11:41:04;7.30;99.90
3942;DHT22;1985;48.592;8.850;2022-12-07T11:49:27;6.60;99.90
3942;DHT22;1985;48.592;8.850;2022-12-07T11:52:02;6.60;99.90
3942;DHT22;1985;48.592;8.850;2022-12-07T11:54:34;6.40;99.90
3942;DHT22;1985;48.592;8.850;2022-12-07T11:57:05;6.40;99.90
3942;DHT22;1985;48.592;8.850;2022-12-07T11:59:52;6.40;99.90
3942;DHT22;1985;48.592;8.850;2022-12-07T12:02:24;6.20;99.90
3942;DHT22;1985;48.592;8.850;2022-12-07T12:05:17;6.20;99.90
3942;DHT22;1985;48.592;8.850;2022-12-07T12:07:45;5.90;99.90
3942;DHT22;1985;48.592;8.850;2022-12-07T12:21:09;6.40;99.90
3942;DHT22;1985;48.592;8.850;2022-12-07T12:23:45;6.60;99.90
3942;DHT22;1985;48.592;8.850;2022-12-07T12:26:21;6.70;99.90
3942;DHT22;1985;48.592;8.850;2022-12-07T12:34:31;6.90;99.90
3942;DHT22;1985;48.592;8.850;2022-12-07T12:36:57;7.10;99.90
3942;DHT22;1985;48.592;8.850;2022-12-07T12:39:23;6.90;99.90
3942;DHT22;1985;48.592;8.850;2022-12-07T12:41:56;6.70;99.90
3942;DHT22;1985;48.592;8.850;2022-12-07T12:46:57;6.70;99.90
3942;DHT22;1985;48.592;8.850;2022-12-07T12:51:53;6.80;99.90
3942;DHT22;1985;48.592;8.850;2022-12-07T12:54:29;6.90;99.90
3942;DHT22;1985;48.592;8.850;2022-12-07T12:59:36;7.00;99.90
3942;DHT22;1985;48.592;8.850;2022-12-07T13:02:33;6.90;99.90
3942;DHT22;1985;48.592;8.850;2022-12-07T13:15:55;7.00;99.90
3942;DHT22;1985;48.592;8.850;2022-12-07T13:18:39;7.10;99.90
3942;DHT22;1985;48.592;8.850;2022-12-07T13:26:23;7.10;99.90
3942;DHT22;1985;48.592;8.850;2022-12-07T13:33:46;7.20;99.90
3942;DHT22;1985;48.592;8.850;2022-12-07T13:36:43;7.30;99.90
3942;DHT22;1985;48.592;8.850;2022-12-07T13:39:19;7.20;99.90
3942;DHT22;1985;48.592;8.850;2022-12-07T13:41:55;7.10;99.90
3942;DHT22;1985;48.592;8.850;2022-12-07T13:44:23;7.00;99.90
3942;DHT22;1985;48.592;8.850;2022-12-07T13:47:17;7.10;99.90
3942;DHT22;1985;48.592;8.850;2022-12-07T13:49:57;7.10;99.90
3942;DHT22;1985;48.592;8.850;2022-12-07T13:52:28;6.80;99.90
3942;DHT22;1985;48.592;8.850;2022-12-07T13:57:31;6.80;99.90
3942;DHT22;1985;48.592;8.850;2022-12-07T14:00:03;6.90;99.90
3942;DHT22;1985;48.592;8.850;2022-12-07T14:02:34;6.70;99.90
3942;DHT22;1985;48.592;8.850;2022-12-07T14:05:10;6.60;99.90
3942;DHT22;1985;48.592;8.850;2022-12-07T14:10:54;6.50;99.90
3942;DHT22;1985;48.592;8.850;2022-12-07T14:13:35;6.50;99.90
3942;DHT22;1985;48.592;8.850;2022-12-07T14:16:03;6.50;99.90
3942;DHT22;1985;48.592;8.850;2022-12-07T14:18:37;6.50;99.90
3942;DHT22;1985;48.592;8.850;2022-12-07T14:23:40;6.60;99.90
3942;DHT22;1985;48.592;8.850;2022-12-07T14:26:15;6.70;99.90
3942;DHT22;1985;48.592;8.850;2022-12-07T14:28:44;6.80;99.90
3942;DHT22;1985;48.592;8.850;2022-12-07T14:31:18;6.80;99.90
3942;DHT22;1985;48.592;8.850;2022-12-07T14:33:45;6.70;99.90
3942;DHT22;1985;48.592;8.850;2022-12-07T14:36:12;6.80;99.90
3942;DHT22;1985;48.592;8.850;2022-12-07T14:38:38;6.90;99.90
3942;DHT22;1985;48.592;8.850;2022-12-07T14:41:05;6.80;99.90
3942;DHT22;1985;48.592;8.850;2022-12-07T14:43:53;6.90;99.90
3942;DHT22;1985;48.592;8.850;2022-12-07T14:46:19;6.90;99.90
3942;DHT22;1985;48.592;8.850;2022-12-07T14:48:44;6.80;99.90
3942;DHT22;1985;48.592;8.850;2022-12-07T14:51:11;6.80;99.90
3942;DHT22;1985;48.592;8.850;2022-12-07T14:53:41;6.80;99.90
3942;DHT22;1985;48.592;8.850;2022-12-07T14:56:08;6.70;99.90
3942;DHT22;1985;48.592;8.850;2022-12-07T14:58:34;6.60;99.90
3942;DHT22;1985;48.592;8.850;2022-12-07T15:01:00;6.50;99.90
3942;DHT22;1985;48.592;8.850;2022-12-07T15:03:29;6.40;99.90
3942;DHT22;1985;48.592;8.850;2022-12-07T15:05:55;6.30;99.90
3942;DHT22;1985;48.592;8.850;2022-12-07T15:08:21;6.30;99.90
3942;DHT22;1985;48.592;8.850;2022-12-07T15:10:46;6.40;99.90
3942;DHT22;1985;48.592;8.850;2022-12-07T15:13:12;6.40;99.90
3942;DHT22;1985;48.592;8.850;2022-12-07T15:15:56;6.40;99.90
3942;DHT22;1985;48.592;8.850;2022-12-07T15:18:22;6.40;99.90
3942;DHT22;1985;48.592;8.850;2022-12-07T15:20:49;6.40;99.90
3942;DHT22;1985;48.592;8.850;2022-12-07T15:23:15;6.40;99.90
3942;DHT22;1985;48.592;8.850;2022-12-07T15:25:42;6.30;99.90
3942;DHT22;1985;48.592;8.850;2022-12-07T15:28:08;6.30;99.90
3942;DHT22;1985;48.592;8.850;2022-12-07T15:30:33;6.30;99.90
3942;DHT22;1985;48.592;8.850;2022-12-07T15:32:59;6.30;99.90
3942;DHT22;1985;48.592;8.850;2022-12-07T15:35:25;6.20;99.90
3942;DHT22;1985;48.592;8.850;2022-12-07T15:37:50;6.20;99.90
3942;DHT22;1985;48.592;8.850;2022-12-07T15:40:16;6.10;99.90
3942;DHT22;1985;48.592;8.850;2022-12-07T15:42:42;6.10;99.90
3942;DHT22;1985;48.592;8.850;2022-12-07T15:45:08;6.00;99.90
3942;DHT22;1985;48.592;8.850;2022-12-07T15:47:37;6.00;99.90
3942;DHT22;1985;48.592;8.850;2022-12-07T15:50:04;5.90;99.90
3942;DHT22;1985;48.592;8.850;2022-12-07T15:52:31;5.80;99.90
3942;DHT22;1985;48.592;8.850;2022-12-07T15:54:57;5.80;99.90
3942;DHT22;1985;48.592;8.850;2022-12-07T15:57:23;5.80;99.90
3942;DHT22;1985;48.592;8.850;2022-12-07T15:59:48;5.80;99.90
3942;DHT22;1985;48.592;8.850;2022-12-07T16:02:14;5.60;99.90
3942;DHT22;1985;48.592;8.850;2022-12-07T16:04:39;5.20;99.90
3942;DHT22;1985;48.592;8.850;2022-12-07T16:07:05;5.00;99.90
3942;DHT22;1985;48.592;8.850;2022-12-07T16:09:31;5.10;99.90
3942;DHT22;1985;48.592;8.850;2022-12-07T16:11:57;5.20;99.90
3942;DHT22;1985;48.592;8.850;2022-12-07T16:14:22;5.20;99.90
3942;DHT22;1985;48.592;8.850;2022-12-07T16:16:48;5.20;99.90
3942;DHT22;1985;48.592;8.850;2022-12-07T16:19:14;5.20;99.90
3942;DHT22;1985;48.592;8.850;2022-12-07T16:21:40;5.30;99.90
3942;DHT22;1985;48.592;8.850;2022-12-07T16:24:07;5.30;99.90
3942;DHT22;1985;48.592;8.850;2022-12-07T16:26:33;5.40;99.90
3942;DHT22;1985;48.592;8.850;2022-12-07T16:28:59;5.40;99.90
3942;DHT22;1985;48.592;8.850;2022-12-07T16:31:26;5.40;99.90
3942;DHT22;1985;48.592;8.850;2022-12-07T16:33:54;5.40;99.90
3942;DHT22;1985;48.592;8.850;2022-12-07T16:36:20;5.40;99.90
3942;DHT22;1985;48.592;8.850;2022-12-07T16:38:47;5.40;99.90
3942;DHT22;1985;48.592;8.850;2022-12-07T16:41:13;5.30;99.90
3942;DHT22;1985;48.592;8.850;2022-12-07T16:43:39;5.30;99.90
3942;DHT22;1985;48.592;8.850;2022-12-07T16:46:05;5.30;99.90
3942;DHT22;1985;48.592;8.850;2022-12-07T16:48:35;5.20;99.90
3942;DHT22;1985;48.592;8.850;2022-12-07T16:51:03;5.10;99.90
3942;DHT22;1985;48.592;8.850;2022-12-07T16:53:29;5.10;99.90
3942;DHT22;1985;48.592;8.850;2022-12-07T16:55:55;5.00;99.90
3942;DHT22;1985;48.592;8.850;2022-12-07T16:58:20;5.00;99.90
3942;DHT22;1985;48.592;8.850;2022-12-07T17:00:46;4.80;99.90
3942;DHT22;1985;48.592;8.850;2022-12-07T17:03:12;4.50;99.90
3942;DHT22;1985;48.592;8.850;2022-12-07T17:05:39;4.40;99.90
3942;DHT22;1985;48.592;8.850;2022-12-07T17:08:05;4.50;99.90
3942;DHT22;1985;48.592;8.850;2022-12-07T17:10:33;4.60;99.90
3942;DHT22;1985;48.592;8.850;2022-12-07T17:13:01;4.70;99.90
3942;DHT22;1985;48.592;8.850;2022-12-07T17:15:27;4.70;99.90
3942;DHT22;1985;48.592;8.850;2022-12-07T17:17:56;4.70;99.90
3942;DHT22;1985;48.592;8.850;2022-12-07T17:20:23;4.60;99.90
3942;DHT22;1985;48.592;8.850;2022-12-07T17:22:49;4.40;99.90
3942;DHT22;1985;48.592;8.850;2022-12-07T17:25:15;4.20;99.90
3942;DHT22;1985;48.592;8.850;2022-12-07T17:27:42;4.20;99.90
3942;DHT22;1985;48.592;8.850;2022-12-07T17:30:08;4.20;99.90
3942;DHT22;1985;48.592;8.850;2022-12-07T17:32:34;4.30;99.90
3942;DHT22;1985;48.592;8.850;2022-12-07T17:34:59;4.30;99.90
3942;DHT22;1985;48.592;8.850;2022-12-07T17:37:26;4.20;99.90
3942;DHT22;1985;48.592;8.850;2022-12-07T17:39:52;4.20;99.90
3942;DHT22;1985;48.592;8.850;2022-12-07T17:42:21;4.20;99.90
3942;DHT22;1985;48.592;8.850;2022-12-07T17:45:06;4.20;99.90
3942;DHT22;1985;48.592;8.850;2022-12-07T17:47:32;4.30;99.90
3942;DHT22;1985;48.592;8.850;2022-12-07T17:49:58;4.00;99.90
3942;DHT22;1985;48.592;8.850;2022-12-07T17:52:23;3.90;99.90
3942;DHT22;1985;48.592;8.850;2022-12-07T17:55:08;4.00;99.90
3942;DHT22;1985;48.592;8.850;2022-12-07T17:57:33;3.90;99.90
3942;DHT22;1985;48.592;8.850;2022-12-07T17:59:59;3.90;99.90
3942;DHT22;1985;48.592;8.850;2022-12-07T18:02:24;3.70;99.90
3942;DHT22;1985;48.592;8.850;2022-12-07T18:04:50;3.70;99.90
3942;DHT22;1985;48.592;8.850;2022-12-07T18:07:17;3.80;99.90
3942;DHT22;1985;48.592;8.850;2022-12-07T18:09:43;3.90;99.90
3942;DHT22;1985;48.592;8.850;2022-12-07T18:12:08;3.90;99.90
3942;DHT22;1985;48.592;8.850;2022-12-07T18:14:34;3.90;99.90
3942;DHT22;1985;48.592;8.850;2022-12-07T18:17:00;3.80;99.90
3942;DHT22;1985;48.592;8.850;2022-12-07T18:19:25;3.50;99.90
3942;DHT22;1985;48.592;8.850;2022-12-07T18:21:51;3.50;99.90
3942;DHT22;1985;48.592;8.850;2022-12-07T18:24:17;3.60;99.90
3942;DHT22;1985;48.592;8.850;2022-12-07T18:26:43;3.70;99.90
3942;DHT22;1985;48.592;8.850;2022-12-07T18:29:18;3.70;99.90
3942;DHT22;1985;48.592;8.850;2022-12-07T18:31:45;3.80;99.90
3942;DHT22;1985;48.592;8.850;2022-12-07T18:34:15;3.90;99.90
3942;DHT22;1985;48.592;8.850;2022-12-07T18:36:45;4.00;99.90
3942;DHT22;1985;48.592;8.850;2022-12-07T18:39:12;4.00;99.90
3942;DHT22;1985;48.592;8.850;2022-12-07T18:41:38;4.00;99.90
3942;DHT22;1985;48.592;8.850;2022-12-07T18:44:04;4.00;99.90
3942;DHT22;1985;48.592;8.850;2022-12-07T18:46:31;3.90;99.90
3942;DHT22;1985;48.592;8.850;2022-12-07T18:48:57;3.40;99.90
3942;DHT22;1985;48.592;8.850;2022-12-07T18:51:23;3.20;99.90